createdAt,value
2019-02-17T00:01:48.139Z,86.03
2019-02-17T00:02:48.141Z,85.84
2019-02-17T00:04:41.041Z,85.74
2019-02-17T00:05:41.043Z,86.03
2019-02-17T00:07:33.937Z,86.41
2019-02-17T00:08:33.945Z,86.12
2019-02-17T00:10:26.847Z,86.41
2019-02-17T00:11:26.850Z,86.22
2019-02-17T00:13:19.742Z,86.12
2019-02-17T00:14:19.752Z,86.12
2019-02-17T00:16:12.654Z,86.41
2019-02-17T00:17:12.659Z,86.41
2019-02-17T00:19:05.560Z,86.31
2019-02-17T00:20:07.984Z,86.03
2019-02-17T00:21:58.471Z,86.22
2019-02-17T00:22:58.474Z,86.74
2019-02-17T00:24:51.366Z,86.83
2019-02-17T00:25:51.374Z,87.16
2019-02-17T00:27:44.279Z,87.07
2019-02-17T00:28:44.281Z,87.07
2019-02-17T00:30:37.194Z,86.41
2019-02-17T00:31:37.184Z,86.60
2019-02-17T00:33:30.080Z,86.41
2019-02-17T00:34:30.087Z,86.41
2019-02-17T00:36:22.983Z,86.22
2019-02-17T00:37:22.988Z,86.50
2019-02-17T00:39:15.879Z,86.12
2019-02-17T00:40:15.889Z,86.22
2019-02-17T00:42:08.789Z,86.12
2019-02-17T00:43:08.795Z,86.22
2019-02-17T00:45:01.691Z,86.79
2019-02-17T00:46:01.697Z,86.60
2019-02-17T00:47:54.600Z,87.07
2019-02-17T00:48:54.597Z,87.16
2019-02-17T00:50:47.500Z,86.98
2019-02-17T00:51:47.503Z,86.98
2019-02-17T00:53:40.404Z,86.98
2019-02-17T00:54:40.415Z,87.16
2019-02-17T00:56:33.322Z,87.35
2019-02-17T00:57:33.320Z,87.07
2019-02-17T00:59:26.217Z,86.98
2019-02-17T01:00:26.222Z,86.98
2019-02-17T01:02:19.123Z,87.35
2019-02-17T01:03:19.126Z,87.73
2019-02-17T01:05:12.016Z,88.02
2019-02-17T01:06:12.029Z,87.92
2019-02-17T01:08:04.928Z,88.59
2019-02-17T01:09:04.930Z,88.30
2019-02-17T01:10:57.830Z,88.49
2019-02-17T01:11:57.834Z,88.30
2019-02-17T01:13:50.751Z,88.68
2019-02-17T01:14:50.754Z,88.11
2019-02-17T01:16:43.655Z,88.49
2019-02-17T01:17:43.658Z,87.73
2019-02-17T01:19:36.559Z,88.11
2019-02-17T01:20:36.568Z,87.73
2019-02-17T01:22:29.472Z,88.02
2019-02-17T01:23:29.472Z,87.92
2019-02-17T01:25:22.362Z,87.92
2019-02-17T01:26:22.370Z,87.64
2019-02-17T01:28:15.269Z,87.64
2019-02-17T01:29:20.432Z,87.92
2019-02-17T01:31:08.571Z,88.11
2019-02-17T01:32:08.181Z,87.64
2019-02-17T01:34:01.600Z,87.54
2019-02-17T01:35:01.605Z,87.35
2019-02-17T01:36:54.505Z,88.02
2019-02-17T01:37:54.503Z,87.83
2019-02-17T01:39:47.398Z,87.73
2019-02-17T01:40:47.407Z,87.83
2019-02-17T01:42:40.306Z,87.92
2019-02-17T01:43:40.308Z,87.73
2019-02-17T01:45:33.205Z,87.73
2019-02-17T01:46:33.212Z,87.92
2019-02-17T01:48:26.108Z,87.92
2019-02-17T01:49:26.109Z,88.49
2019-02-17T01:51:19.000Z,88.49
2019-02-17T01:52:19.009Z,88.59
2019-02-17T01:54:11.911Z,88.40
2019-02-17T01:55:11.914Z,88.11
2019-02-17T01:57:04.812Z,88.30
2019-02-17T01:58:04.815Z,88.21
2019-02-17T01:59:57.705Z,88.49
2019-02-17T02:00:57.716Z,88.40
2019-02-17T02:02:50.677Z,88.96
2019-02-17T02:03:50.613Z,88.96
2019-02-17T02:05:43.505Z,88.87
2019-02-17T02:06:43.517Z,88.68
2019-02-17T02:08:36.455Z,89.06
2019-02-17T02:09:36.417Z,88.59
2019-02-17T02:11:29.315Z,88.21
2019-02-17T02:12:29.319Z,88.21
2019-02-17T02:14:22.225Z,88.30
2019-02-17T02:15:22.221Z,88.30
2019-02-17T02:17:15.121Z,88.30
2019-02-17T02:18:15.123Z,88.78
2019-02-17T02:20:08.026Z,88.78
2019-02-17T02:21:08.021Z,88.68
2019-02-17T02:23:00.923Z,88.30
2019-02-17T02:24:00.923Z,88.40
2019-02-17T02:25:53.813Z,88.40
2019-02-17T02:26:53.825Z,88.26
2019-02-17T02:28:47.230Z,88.49
2019-02-17T02:29:47.230Z,88.21
2019-02-17T02:31:40.118Z,88.30
2019-02-17T02:32:40.128Z,88.26
2019-02-17T02:34:33.028Z,88.26
2019-02-17T02:35:33.034Z,89.20
2019-02-17T02:37:25.930Z,89.25
2019-02-17T02:38:25.932Z,89.53
2019-02-17T02:40:18.829Z,90.34
2019-02-17T02:41:18.836Z,89.91
2019-02-17T02:43:11.744Z,90.86
2019-02-17T02:44:11.735Z,90.77
2019-02-17T02:46:04.694Z,90.86
2019-02-17T02:47:04.636Z,90.91
2019-02-17T02:48:57.539Z,90.95
2019-02-17T02:49:57.538Z,90.91
2019-02-17T02:51:50.427Z,91.14
2019-02-17T02:52:50.439Z,90.29
2019-02-17T02:54:43.341Z,89.91
2019-02-17T02:55:43.342Z,90.20
2019-02-17T02:57:36.511Z,89.77
2019-02-17T02:58:36.243Z,89.77
2019-02-17T03:00:29.142Z,89.58
2019-02-17T03:01:29.145Z,89.87
2019-02-17T03:03:22.045Z,89.87
2019-02-17T03:04:22.045Z,89.01
2019-02-17T03:06:14.941Z,89.30
2019-02-17T03:07:14.949Z,89.39
2019-02-17T03:09:07.848Z,89.39
2019-02-17T03:10:07.863Z,89.58
2019-02-17T03:12:00.738Z,89.20
2019-02-17T03:13:00.747Z,89.68
2019-02-17T03:14:53.646Z,89.58
2019-02-17T03:15:53.648Z,89.30
2019-02-17T03:17:46.540Z,89.87
2019-02-17T03:18:46.552Z,90.06
2019-02-17T03:20:39.444Z,90.91
2019-02-17T03:21:39.447Z,90.72
2019-02-17T03:23:32.366Z,90.91
2019-02-17T03:24:32.367Z,90.86
2019-02-17T03:26:25.261Z,90.95
2019-02-17T03:27:25.273Z,90.86
2019-02-17T03:29:18.171Z,90.44
2019-02-17T03:30:18.170Z,90.67
2019-02-17T03:32:11.073Z,90.10
2019-02-17T03:33:11.068Z,90.06
2019-02-17T03:35:03.974Z,90.29
2019-02-17T03:36:03.972Z,90.20
2019-02-17T03:37:56.897Z,90.20
2019-02-17T03:38:56.871Z,89.96
2019-02-17T03:40:49.770Z,90.06
2019-02-17T03:41:49.781Z,89.68
2019-02-17T03:43:42.676Z,89.96
2019-02-17T03:44:42.677Z,89.77
2019-02-17T03:46:35.570Z,90.06
2019-02-17T03:47:35.590Z,89.58
2019-02-17T03:49:28.478Z,89.30
2019-02-17T03:50:28.482Z,89.30
2019-02-17T03:52:21.375Z,89.68
2019-02-17T03:53:21.449Z,89.68
2019-02-17T03:55:14.284Z,89.77
2019-02-17T03:56:14.284Z,89.68
2019-02-17T03:58:07.184Z,89.77
2019-02-17T03:59:07.190Z,89.58
2019-02-17T04:01:00.077Z,89.39
2019-02-17T04:02:00.086Z,89.87
2019-02-17T04:03:52.989Z,89.77
2019-02-17T04:04:53.001Z,89.30
2019-02-17T04:06:45.890Z,89.58
2019-02-17T04:07:45.898Z,89.68
2019-02-17T04:09:38.812Z,89.58
2019-02-17T04:10:38.800Z,89.58
2019-02-17T04:12:31.692Z,89.96
2019-02-17T04:13:31.702Z,89.87
2019-02-17T04:15:24.605Z,89.77
2019-02-17T04:16:24.611Z,89.87
2019-02-17T04:18:17.503Z,89.87
2019-02-17T04:19:17.510Z,89.58
2019-02-17T04:21:10.412Z,89.77
2019-02-17T04:22:10.415Z,89.77
2019-02-17T04:24:03.317Z,89.77
2019-02-17T04:25:03.315Z,89.96
2019-02-17T04:26:56.211Z,89.77
2019-02-17T04:27:56.223Z,89.68
2019-02-17T04:29:49.120Z,89.68
2019-02-17T04:30:49.120Z,89.96
2019-02-17T04:32:42.006Z,89.96
2019-02-17T04:33:42.016Z,89.96
2019-02-17T04:35:34.915Z,89.87
2019-02-17T04:36:34.923Z,89.77
2019-02-17T04:38:27.840Z,89.58
2019-02-17T04:39:27.818Z,89.68
2019-02-17T04:41:20.731Z,89.77
2019-02-17T04:42:20.722Z,89.39
2019-02-17T04:44:13.617Z,89.77
2019-02-17T04:45:13.622Z,89.68
2019-02-17T04:47:06.515Z,89.68
2019-02-17T04:48:06.540Z,89.87
2019-02-17T04:49:59.419Z,89.58
2019-02-17T04:50:59.422Z,89.58
2019-02-17T04:52:52.316Z,89.77
2019-02-17T04:53:52.343Z,89.77
2019-02-17T04:55:45.227Z,89.87
2019-02-17T04:56:45.221Z,89.68
2019-02-17T04:58:38.114Z,89.77
2019-02-17T04:59:38.117Z,89.96
2019-02-17T05:01:31.023Z,89.77
2019-02-17T05:02:31.023Z,89.87
2019-02-17T05:04:23.927Z,89.77
2019-02-17T05:05:23.921Z,89.87
2019-02-17T05:07:16.819Z,90.15
2019-02-17T05:08:16.826Z,90.34
2019-02-17T05:10:09.729Z,90.06
2019-02-17T05:11:09.777Z,89.96
2019-02-17T05:13:02.630Z,90.53
2019-02-17T05:14:02.640Z,90.25
2019-02-17T05:15:55.553Z,89.87
2019-02-17T05:16:55.546Z,89.87
2019-02-17T05:18:48.437Z,90.06
2019-02-17T05:19:48.447Z,90.06
2019-02-17T05:21:41.349Z,90.06
2019-02-17T05:22:41.349Z,89.87
2019-02-17T05:24:34.269Z,89.96
2019-02-17T05:25:34.256Z,90.06
2019-02-17T05:27:27.142Z,90.15
2019-02-17T05:28:27.166Z,90.34
2019-02-17T05:30:20.052Z,90.15
2019-02-17T05:31:20.058Z,90.34
2019-02-17T05:33:12.946Z,90.34
2019-02-17T05:34:12.962Z,90.25
2019-02-17T05:36:05.862Z,90.06
2019-02-17T05:37:05.856Z,89.96
2019-02-17T05:38:58.750Z,89.96
2019-02-17T05:39:58.757Z,90.34
2019-02-17T05:41:51.659Z,90.15
2019-02-17T05:42:51.656Z,90.15
2019-02-17T05:44:44.568Z,89.96
2019-02-17T05:45:44.570Z,89.87
2019-02-17T05:47:37.464Z,90.06
2019-02-17T05:48:37.470Z,90.53
2019-02-17T05:50:30.385Z,90.53
2019-02-17T05:51:30.390Z,90.25
2019-02-17T05:53:23.280Z,90.44
2019-02-17T05:54:23.285Z,90.81
2019-02-17T05:56:16.188Z,90.81
2019-02-17T05:57:16.188Z,90.63
2019-02-17T05:59:09.081Z,90.63
2019-02-17T06:00:09.090Z,91.10
2019-02-17T06:02:02.083Z,91.10
2019-02-17T06:03:02.004Z,91.10
2019-02-17T06:04:54.913Z,90.91
2019-02-17T06:05:54.916Z,90.72
2019-02-17T06:07:47.813Z,90.72
2019-02-17T06:08:47.817Z,90.91
2019-02-17T06:10:41.728Z,91.19
2019-02-17T06:11:41.732Z,90.91
2019-02-17T06:13:34.619Z,90.91
2019-02-17T06:14:34.624Z,91.19
2019-02-17T06:16:27.529Z,91.00
2019-02-17T06:17:27.532Z,91.10
2019-02-17T06:19:20.428Z,91.00
2019-02-17T06:20:20.440Z,91.00
2019-02-17T06:22:13.335Z,91.00
2019-02-17T06:23:13.333Z,91.00
2019-02-17T06:25:06.239Z,90.63
2019-02-17T06:26:06.239Z,91.10
2019-02-17T06:27:59.131Z,90.44
2019-02-17T06:28:59.135Z,90.72
2019-02-17T06:30:52.036Z,90.72
2019-02-17T06:31:52.037Z,90.53
2019-02-17T06:33:44.932Z,90.53
2019-02-17T06:34:44.940Z,90.72
2019-02-17T06:36:37.835Z,90.53
2019-02-17T06:37:37.835Z,90.53
2019-02-17T06:39:30.731Z,90.72
2019-02-17T06:40:30.738Z,90.72
2019-02-17T06:42:23.640Z,90.63
2019-02-17T06:43:23.640Z,90.72
2019-02-17T06:45:16.542Z,90.72
2019-02-17T06:46:16.539Z,90.72
2019-02-17T06:48:10.436Z,90.58
2019-02-17T06:49:10.441Z,90.63
2019-02-17T06:51:03.340Z,90.91
2019-02-17T06:52:03.354Z,91.10
2019-02-17T06:53:56.229Z,91.57
2019-02-17T06:54:56.235Z,91.29
2019-02-17T06:56:49.135Z,91.10
2019-02-17T06:57:49.133Z,91.38
2019-02-17T06:59:42.025Z,91.95
2019-02-17T07:00:42.051Z,91.76
2019-02-17T07:02:34.928Z,91.67
2019-02-17T07:03:34.930Z,91.48
2019-02-17T07:05:27.824Z,91.10
2019-02-17T07:06:27.833Z,91.29
2019-02-17T07:08:20.725Z,91.10
2019-02-17T07:09:20.725Z,91.10
2019-02-17T07:11:14.138Z,91.19
2019-02-17T07:12:14.118Z,91.38
2019-02-17T07:14:07.008Z,91.29
2019-02-17T07:15:07.018Z,91.57
2019-02-17T07:16:59.915Z,90.72
2019-02-17T07:17:59.916Z,91.48
2019-02-17T07:19:52.805Z,91.48
2019-02-17T07:20:52.815Z,91.10
2019-02-17T07:22:45.715Z,91.10
2019-02-17T07:23:45.715Z,91.48
2019-02-17T07:25:38.607Z,91.48
2019-02-17T07:26:38.616Z,91.48
2019-02-17T07:28:31.512Z,91.10
2019-02-17T07:29:31.514Z,91.00
2019-02-17T07:31:34.375Z,90.91
2019-02-17T07:32:24.416Z,90.67
2019-02-17T07:34:17.320Z,90.67
2019-02-17T07:35:17.326Z,90.77
2019-02-17T07:37:10.224Z,90.95
2019-02-17T07:38:10.224Z,90.95
2019-02-17T07:40:03.118Z,91.05
2019-02-17T07:41:03.126Z,90.67
2019-02-17T07:42:56.027Z,90.10
2019-02-17T07:43:56.028Z,90.01
2019-02-17T07:45:48.918Z,90.48
2019-02-17T07:46:48.927Z,89.91
2019-02-17T07:48:41.849Z,89.44
2019-02-17T07:49:41.852Z,89.53
2019-02-17T07:51:34.743Z,89.63
2019-02-17T07:52:34.750Z,89.63
2019-02-17T07:54:27.657Z,89.06
2019-02-17T07:55:27.656Z,88.87
2019-02-17T07:57:20.558Z,88.96
2019-02-17T07:58:20.563Z,89.15
2019-02-17T08:00:13.458Z,89.11
2019-02-17T08:01:13.466Z,88.96
2019-02-17T08:03:06.364Z,89.29
2019-02-17T08:04:06.365Z,89.39
2019-02-17T08:05:59.267Z,88.92
2019-02-17T08:06:59.276Z,88.54
2019-02-17T08:08:52.176Z,87.97
2019-02-17T08:09:52.177Z,87.87
2019-02-17T08:11:45.071Z,87.59
2019-02-17T08:12:45.080Z,87.68
2019-02-17T08:14:37.985Z,87.49
2019-02-17T08:15:37.980Z,87.68
2019-02-17T08:17:30.921Z,87.59
2019-02-17T08:18:30.886Z,87.68
2019-02-17T08:20:23.777Z,87.59
2019-02-17T08:21:23.787Z,87.30
2019-02-17T08:23:16.693Z,87.30
2019-02-17T08:24:16.687Z,87.21
2019-02-17T08:26:09.582Z,87.06
2019-02-17T08:27:09.593Z,87.35
2019-02-17T08:29:02.496Z,86.68
2019-02-17T08:30:02.497Z,86.87
2019-02-17T08:31:56.273Z,86.59
2019-02-17T08:32:55.402Z,86.21
2019-02-17T08:34:48.325Z,86.30
2019-02-17T08:35:48.312Z,86.02
2019-02-17T08:37:41.211Z,86.49
2019-02-17T08:38:41.210Z,86.11
2019-02-17T08:40:34.115Z,86.21
2019-02-17T08:41:34.117Z,86.49
2019-02-17T08:43:27.015Z,85.97
2019-02-17T08:44:27.020Z,85.87
2019-02-17T08:46:20.125Z,85.11
2019-02-17T08:47:20.005Z,85.21
2019-02-17T08:49:12.944Z,85.30
2019-02-17T08:50:12.920Z,85.11
2019-02-17T08:52:05.810Z,85.68
2019-02-17T08:53:05.815Z,85.11
2019-02-17T08:54:58.716Z,85.02
2019-02-17T08:55:58.732Z,84.55
2019-02-17T08:57:51.613Z,84.64
2019-02-17T08:58:51.625Z,84.45
2019-02-17T09:00:44.525Z,84.40
2019-02-17T09:01:44.530Z,84.30
2019-02-17T09:03:37.516Z,84.49
2019-02-17T09:04:37.459Z,83.07
2019-02-17T09:06:30.352Z,82.78
2019-02-17T09:07:30.363Z,82.31
2019-02-17T09:09:23.265Z,81.74
2019-02-17T09:10:23.298Z,81.36
2019-02-17T09:12:16.164Z,81.36
2019-02-17T09:13:18.408Z,81.97
2019-02-17T09:15:09.078Z,82.16
2019-02-17T09:16:09.081Z,81.78
2019-02-17T09:18:01.976Z,80.93
2019-02-17T09:19:01.988Z,81.49
2019-02-17T09:20:54.889Z,80.93
2019-02-17T09:21:54.893Z,81.68
2019-02-17T09:23:47.830Z,80.45
2019-02-17T09:24:48.006Z,80.45
2019-02-17T09:26:40.699Z,80.35
2019-02-17T09:27:40.776Z,79.54
2019-02-17T09:29:33.627Z,78.69
2019-02-17T09:30:33.622Z,78.78
2019-02-17T09:32:26.520Z,78.50
2019-02-17T09:33:26.528Z,77.36
2019-02-17T09:35:19.436Z,77.45
2019-02-17T09:36:19.438Z,77.64
2019-02-17T09:38:12.337Z,77.07
2019-02-17T09:39:12.351Z,76.50
2019-02-17T09:41:05.285Z,75.64
2019-02-17T09:42:05.287Z,75.49
2019-02-17T09:43:58.217Z,75.59
2019-02-17T09:44:58.207Z,75.59
2019-02-17T09:46:51.153Z,75.49
2019-02-17T09:47:51.117Z,74.92
2019-02-17T09:49:44.006Z,75.02
2019-02-17T09:50:44.009Z,75.11
2019-02-17T09:52:36.957Z,75.11
2019-02-17T09:53:36.976Z,75.11
2019-02-17T09:55:29.880Z,74.96
2019-02-17T09:56:29.902Z,75.62
2019-02-17T09:58:22.787Z,75.34
2019-02-17T09:59:22.790Z,74.77
2019-02-17T10:01:15.757Z,74.20
2019-02-17T10:02:26.053Z,73.72
2019-02-17T10:04:08.640Z,73.25
2019-02-17T10:05:08.646Z,73.44
2019-02-17T10:07:01.551Z,73.44
2019-02-17T10:08:01.560Z,73.95
2019-02-17T10:09:54.954Z,73.57
2019-02-17T10:10:54.961Z,73.85
2019-02-17T10:12:47.859Z,73.19
2019-02-17T10:13:47.991Z,71.57
2019-02-17T10:15:40.820Z,70.90
2019-02-17T10:16:40.792Z,70.90
2019-02-17T10:18:33.774Z,71.57
2019-02-17T10:19:33.695Z,71.57
2019-02-17T10:21:26.604Z,71.38
2019-02-17T10:22:26.610Z,71.70
2019-02-17T10:24:19.533Z,72.85
2019-02-17T10:25:19.524Z,72.46
2019-02-17T10:27:13.436Z,72.27
2019-02-17T10:28:14.092Z,71.61
2019-02-17T10:30:06.862Z,71.61
2019-02-17T10:31:06.869Z,71.45
2019-02-17T10:32:59.770Z,70.88
2019-02-17T10:33:59.780Z,71.17
2019-02-17T10:35:52.685Z,70.40
2019-02-17T10:36:52.688Z,70.50
2019-02-17T10:38:45.588Z,70.50
2019-02-17T10:39:45.602Z,70.31
2019-02-17T10:41:38.507Z,70.31
2019-02-17T10:42:38.512Z,69.07
2019-02-17T10:44:31.411Z,69.20
2019-02-17T10:45:31.426Z,69.39
2019-02-17T10:47:24.337Z,69.58
2019-02-17T10:48:24.336Z,68.91
2019-02-17T10:50:17.245Z,67.96
2019-02-17T10:51:17.251Z,67.58
2019-02-17T10:53:11.171Z,67.96
2019-02-17T10:54:11.260Z,67.77
2019-02-17T10:56:04.093Z,67.80
2019-02-17T10:57:04.097Z,68.18
2019-02-17T10:58:56.994Z,67.71
2019-02-17T10:59:57.011Z,67.42
2019-02-17T11:01:49.921Z,66.56
2019-02-17T11:02:49.930Z,66.47
2019-02-17T11:04:42.826Z,65.61
2019-02-17T11:05:42.840Z,65.99
2019-02-17T11:07:35.748Z,65.89
2019-02-17T11:08:35.754Z,65.80
2019-02-17T11:10:28.674Z,66.09
2019-02-17T11:11:28.672Z,65.93
2019-02-17T11:13:21.578Z,65.83
2019-02-17T11:14:21.585Z,65.64
2019-02-17T11:16:14.492Z,65.07
2019-02-17T11:17:14.499Z,64.97
2019-02-17T11:19:07.398Z,64.97
2019-02-17T11:20:07.413Z,63.92
2019-02-17T11:22:00.321Z,63.20
2019-02-17T11:23:00.331Z,62.52
2019-02-17T11:24:53.237Z,61.10
2019-02-17T11:25:53.243Z,61.38
2019-02-17T11:27:46.164Z,62.15
2019-02-17T11:28:46.156Z,62.15
2019-02-17T11:30:39.065Z,60.90
2019-02-17T11:31:39.071Z,61.57
2019-02-17T11:33:31.971Z,61.10
2019-02-17T11:34:31.986Z,60.04
2019-02-17T11:36:24.899Z,60.52
2019-02-17T11:37:24.902Z,60.33
2019-02-17T11:39:17.802Z,60.42
2019-02-17T11:40:17.819Z,60.71
2019-02-17T11:42:10.729Z,60.52
2019-02-17T11:43:10.734Z,60.81
2019-02-17T11:45:03.638Z,60.55
2019-02-17T11:46:03.652Z,60.74
2019-02-17T11:47:56.561Z,61.32
2019-02-17T11:48:56.569Z,59.69
2019-02-17T11:50:49.477Z,60.17
2019-02-17T11:51:49.490Z,60.46
2019-02-17T11:53:42.388Z,60.74
2019-02-17T11:54:42.401Z,60.17
2019-02-17T11:56:35.315Z,60.10
2019-02-17T11:57:35.320Z,59.78
2019-02-17T11:59:28.220Z,59.72
2019-02-17T12:00:28.235Z,59.34
2019-02-17T12:02:24.874Z,59.44
2019-02-17T12:03:21.646Z,59.24
2019-02-17T12:05:14.550Z,58.95
2019-02-17T12:06:14.565Z,58.86
2019-02-17T12:08:07.475Z,57.43
2019-02-17T12:09:07.483Z,57.33
2019-02-17T12:11:01.304Z,57.04
2019-02-17T12:12:00.403Z,57.04
2019-02-17T12:13:53.310Z,57.46
2019-02-17T12:14:53.322Z,57.24
2019-02-17T12:16:46.235Z,57.84
2019-02-17T12:17:46.244Z,57.07
2019-02-17T12:19:39.142Z,56.50
2019-02-17T12:20:39.157Z,56.98
2019-02-17T12:22:32.070Z,56.21
2019-02-17T12:23:32.075Z,56.79
2019-02-17T12:25:24.988Z,55.83
2019-02-17T12:26:25.003Z,55.93
2019-02-17T12:28:17.909Z,55.45
2019-02-17T12:29:17.914Z,55.74
2019-02-17T12:31:10.827Z,56.02
2019-02-17T12:32:10.840Z,56.79
2019-02-17T12:34:03.738Z,56.79
2019-02-17T12:35:03.754Z,56.31
2019-02-17T12:36:56.669Z,56.72
2019-02-17T12:37:56.674Z,57.20
2019-02-17T12:39:49.582Z,55.29
2019-02-17T12:40:49.599Z,55.86
2019-02-17T12:42:42.505Z,55.38
2019-02-17T12:43:42.515Z,54.23
2019-02-17T12:45:35.418Z,54.43
2019-02-17T12:46:35.436Z,53.75
2019-02-17T12:48:28.349Z,53.66
2019-02-17T12:49:28.356Z,54.52
2019-02-17T12:51:21.260Z,54.36
2019-02-17T12:52:21.275Z,54.55
2019-02-17T12:54:14.186Z,53.69
2019-02-17T12:55:14.193Z,52.63
2019-02-17T12:57:07.108Z,52.92
2019-02-17T12:58:07.116Z,52.54
2019-02-17T13:00:00.024Z,53.20
2019-02-17T13:01:00.038Z,52.92
2019-02-17T13:02:52.950Z,52.63
2019-02-17T13:03:52.958Z,53.20
2019-02-17T13:05:45.862Z,52.34
2019-02-17T13:06:45.883Z,52.63
2019-02-17T13:08:38.792Z,51.99
2019-02-17T13:09:38.798Z,52.09
2019-02-17T13:11:31.704Z,52.75
2019-02-17T13:12:31.717Z,52.66
2019-02-17T13:14:24.633Z,51.79
2019-02-17T13:15:24.642Z,52.37
2019-02-17T13:17:17.567Z,51.32
2019-02-17T13:18:17.562Z,51.32
2019-02-17T13:20:10.470Z,50.74
2019-02-17T13:21:10.484Z,50.65
2019-02-17T13:23:03.398Z,51.42
2019-02-17T13:24:03.407Z,51.42
2019-02-17T13:25:56.314Z,51.03
2019-02-17T13:26:56.331Z,50.74
2019-02-17T13:28:49.244Z,50.74
2019-02-17T13:29:49.251Z,51.89
2019-02-17T13:31:42.157Z,51.70
2019-02-17T13:32:42.172Z,51.70
2019-02-17T13:34:35.088Z,51.63
2019-02-17T13:35:35.097Z,51.61
2019-02-17T13:37:30.200Z,51.54
2019-02-17T13:38:28.021Z,51.73
2019-02-17T13:40:20.929Z,51.44
2019-02-17T13:41:20.939Z,51.63
2019-02-17T13:43:13.867Z,51.34
2019-02-17T13:44:13.862Z,51.44
2019-02-17T13:46:06.772Z,51.06
2019-02-17T13:47:06.786Z,51.34
2019-02-17T13:48:59.708Z,51.15
2019-02-17T13:49:59.708Z,51.44
2019-02-17T13:51:52.614Z,51.44
2019-02-17T13:52:52.629Z,51.34
2019-02-17T13:54:45.557Z,51.54
2019-02-17T13:55:45.571Z,50.20
2019-02-17T13:57:38.956Z,50.48
2019-02-17T13:58:38.973Z,50.48
2019-02-17T14:00:31.905Z,50.20
2019-02-17T14:01:31.914Z,50.77
2019-02-17T14:03:25.379Z,50.20
2019-02-17T14:04:24.836Z,50.10
2019-02-17T14:06:18.261Z,50.48
2019-02-17T14:07:18.272Z,50.77
2019-02-17T14:09:11.225Z,49.62
2019-02-17T14:10:11.223Z,49.71
2019-02-17T14:12:04.165Z,49.71
2019-02-17T14:13:04.250Z,49.43
2019-02-17T14:14:57.068Z,49.62
2019-02-17T14:15:57.068Z,49.52
2019-02-17T14:17:49.997Z,49.62
2019-02-17T14:18:49.995Z,49.62
2019-02-17T14:20:42.915Z,49.81
2019-02-17T14:21:42.911Z,49.52
2019-02-17T14:23:35.857Z,49.55
2019-02-17T14:24:35.854Z,50.22
2019-02-17T14:26:28.763Z,50.22
2019-02-17T14:27:29.093Z,50.20
2019-02-17T14:29:21.694Z,49.52
2019-02-17T14:30:21.702Z,49.65
2019-02-17T14:32:14.609Z,48.97
2019-02-17T14:33:14.628Z,49.55
2019-02-17T14:35:07.618Z,50.32
2019-02-17T14:36:07.551Z,50.41
2019-02-17T14:38:00.924Z,49.33
2019-02-17T14:39:00.474Z,49.43
2019-02-17T14:40:53.389Z,49.45
2019-02-17T14:41:53.401Z,49.52
2019-02-17T14:43:46.354Z,49.55
2019-02-17T14:44:46.337Z,49.81
2019-02-17T14:46:39.234Z,50.10
2019-02-17T14:47:39.250Z,50.10
2019-02-17T14:49:32.165Z,49.52
2019-02-17T14:50:32.171Z,49.84
2019-02-17T14:52:25.120Z,50.10
2019-02-17T14:53:25.137Z,50.89
2019-02-17T14:55:18.050Z,50.10
2019-02-17T14:56:18.065Z,50.10
2019-02-17T14:58:10.969Z,50.29
2019-02-17T14:59:11.017Z,50.89
2019-02-17T15:01:03.899Z,50.67
2019-02-17T15:02:03.911Z,50.67
2019-02-17T15:03:56.829Z,50.29
2019-02-17T15:04:56.877Z,50.29
2019-02-17T15:06:49.786Z,50.10
2019-02-17T15:07:49.805Z,50.77
2019-02-17T15:09:42.718Z,50.48
2019-02-17T15:10:42.745Z,50.96
2019-02-17T15:12:35.671Z,50.58
2019-02-17T15:13:35.685Z,50.58
2019-02-17T15:15:28.599Z,50.20
2019-02-17T15:16:28.607Z,50.10
2019-02-17T15:18:21.536Z,49.52
2019-02-17T15:19:21.542Z,49.91
2019-02-17T15:21:14.522Z,50.20
2019-02-17T15:22:14.478Z,50.29
2019-02-17T15:24:08.016Z,50.58
2019-02-17T15:25:07.626Z,50.38
2019-02-17T15:27:00.317Z,50.96
2019-02-17T15:28:00.340Z,50.38
2019-02-17T15:29:53.388Z,50.48
2019-02-17T15:30:53.252Z,51.25
2019-02-17T15:32:46.156Z,51.54
2019-02-17T15:33:46.174Z,51.44
2019-02-17T15:35:39.127Z,51.44
2019-02-17T15:36:39.096Z,51.54
2019-02-17T15:38:32.002Z,51.63
2019-02-17T15:39:32.069Z,51.82
2019-02-17T15:41:24.932Z,52.11
2019-02-17T15:42:24.942Z,51.82
2019-02-17T15:44:17.861Z,51.79
2019-02-17T15:45:17.880Z,51.79
2019-02-17T15:47:10.798Z,51.70
2019-02-17T15:48:10.799Z,51.70
2019-02-17T15:50:03.706Z,51.61
2019-02-17T15:51:06.412Z,51.61
2019-02-17T15:52:56.721Z,51.61
2019-02-17T15:53:56.745Z,51.61
2019-02-17T15:55:49.639Z,52.09
2019-02-17T15:56:49.650Z,51.99
2019-02-17T15:58:42.559Z,51.79
2019-02-17T15:59:42.573Z,52.18
2019-02-17T16:01:35.485Z,52.37
2019-02-17T16:02:35.587Z,52.73
2019-02-17T16:04:28.908Z,52.37
2019-02-17T16:05:28.412Z,52.44
2019-02-17T16:07:21.332Z,52.54
2019-02-17T16:08:21.341Z,53.20
2019-02-17T16:10:14.254Z,52.83
2019-02-17T16:11:14.352Z,53.30
2019-02-17T16:13:07.201Z,53.40
2019-02-17T16:14:07.253Z,53.40
2019-02-17T16:16:00.172Z,53.49
2019-02-17T16:17:00.161Z,53.88
2019-02-17T16:18:53.104Z,54.52
2019-02-17T16:19:53.039Z,54.61
2019-02-17T16:21:46.042Z,54.61
2019-02-17T16:22:46.074Z,54.71
2019-02-17T16:24:38.946Z,55.29
2019-02-17T16:25:38.940Z,55.47
2019-02-17T16:27:31.980Z,55.29
2019-02-17T16:28:31.905Z,55.57
2019-02-17T16:30:24.835Z,55.54
2019-02-17T16:31:24.809Z,56.02
2019-02-17T16:33:17.760Z,56.40
2019-02-17T16:34:17.726Z,56.60
2019-02-17T16:36:10.644Z,56.60
2019-02-17T16:37:10.731Z,57.07
2019-02-17T16:39:03.572Z,57.71
2019-02-17T16:40:03.583Z,57.04
2019-02-17T16:41:56.508Z,57.71
2019-02-17T16:42:56.516Z,57.90
2019-02-17T16:44:49.410Z,57.81
2019-02-17T16:45:49.423Z,58.19
2019-02-17T16:47:42.339Z,57.81
2019-02-17T16:48:42.368Z,58.58
2019-02-17T16:50:35.815Z,59.31
2019-02-17T16:51:35.831Z,59.31
2019-02-17T16:53:28.694Z,59.22
2019-02-17T16:54:28.703Z,59.69
2019-02-17T16:56:21.618Z,59.78
2019-02-17T16:57:21.652Z,59.78
2019-02-17T16:59:14.534Z,59.95
2019-02-17T17:00:14.542Z,60.04
2019-02-17T17:02:07.450Z,60.42
2019-02-17T17:03:07.462Z,61.10
2019-02-17T17:05:00.928Z,61.66
2019-02-17T17:06:00.887Z,61.95
2019-02-17T17:07:53.799Z,62.59
2019-02-17T17:08:53.805Z,62.88
2019-02-17T17:10:46.726Z,63.26
2019-02-17T17:11:46.745Z,63.73
2019-02-17T17:13:39.659Z,64.31
2019-02-17T17:14:39.663Z,65.17
2019-02-17T17:16:32.594Z,65.36
2019-02-17T17:17:32.585Z,65.70
2019-02-17T17:19:25.983Z,65.83
2019-02-17T17:20:26.020Z,65.42
2019-02-17T17:22:18.892Z,66.09
2019-02-17T17:23:18.906Z,65.89
2019-02-17T17:25:11.819Z,66.09
2019-02-17T17:26:11.824Z,66.56
2019-02-17T17:28:04.757Z,66.56
2019-02-17T17:29:04.747Z,66.75
2019-02-17T17:30:57.681Z,67.23
2019-02-17T17:31:57.696Z,66.75
2019-02-17T17:33:50.641Z,66.85
2019-02-17T17:34:58.577Z,67.04
2019-02-17T17:36:43.514Z,67.90
2019-02-17T17:37:43.523Z,67.71
2019-02-17T17:39:36.557Z,68.24
2019-02-17T17:40:36.474Z,67.86
2019-02-17T17:42:29.337Z,68.53
2019-02-17T17:43:29.348Z,68.05
2019-02-17T17:45:22.293Z,68.34
2019-02-17T17:46:22.294Z,69.20
2019-02-17T17:48:15.207Z,69.29
2019-02-17T17:49:19.337Z,68.91
2019-02-17T17:51:08.112Z,69.20
2019-02-17T17:52:08.127Z,68.91
2019-02-17T17:54:01.033Z,69.68
2019-02-17T17:55:01.040Z,69.68
2019-02-17T17:56:53.941Z,69.64
2019-02-17T17:57:53.954Z,69.93
2019-02-17T17:59:46.863Z,70.12
2019-02-17T18:00:46.973Z,70.21
2019-02-17T18:02:39.775Z,70.31
2019-02-17T18:03:39.784Z,70.21
2019-02-17T18:05:32.792Z,69.93
2019-02-17T18:06:32.729Z,70.02
2019-02-17T18:08:25.605Z,70.69
2019-02-17T18:09:25.626Z,70.69
2019-02-17T18:11:19.067Z,70.69
2019-02-17T18:12:18.522Z,70.59
2019-02-17T18:14:11.432Z,70.50
2019-02-17T18:15:11.433Z,71.07
2019-02-17T18:17:04.337Z,70.88
2019-02-17T18:18:04.347Z,71.17
2019-02-17T18:19:57.258Z,70.84
2019-02-17T18:20:57.264Z,70.94
2019-02-17T18:22:50.170Z,71.61
2019-02-17T18:23:50.183Z,71.22
2019-02-17T18:25:43.088Z,71.80
2019-02-17T18:26:43.095Z,71.80
2019-02-17T18:28:36.010Z,71.70
2019-02-17T18:29:36.008Z,71.89
2019-02-17T18:31:28.909Z,72.37
2019-02-17T18:32:28.921Z,72.65
2019-02-17T18:34:21.831Z,72.46